createdAt,value
2019-03-13T00:00:28.419Z,48.24
2019-03-13T00:01:28.349Z,48.16
2019-03-13T00:02:28.302Z,48.24
2019-03-13T00:03:28.295Z,48.44
2019-03-13T00:04:28.271Z,47.62
2019-03-13T00:05:28.277Z,47.62
2019-03-13T00:06:28.262Z,47.92
2019-03-13T00:07:28.268Z,47.82
2019-03-13T00:08:28.242Z,48.03
2019-03-13T00:09:28.218Z,47.41
2019-03-13T00:10:28.204Z,46.36
2019-03-13T00:11:28.200Z,46.48
2019-03-13T00:12:28.187Z,46.67
2019-03-13T00:13:28.176Z,46.57
2019-03-13T00:14:28.171Z,46.15
2019-03-13T00:15:28.154Z,46.77
2019-03-13T00:16:28.148Z,45.75
2019-03-13T00:17:28.132Z,45.54
2019-03-13T00:18:28.138Z,45.75
2019-03-13T00:19:28.118Z,46.06
2019-03-13T00:20:28.102Z,46.26
2019-03-13T00:21:28.090Z,45.95
2019-03-13T00:22:28.078Z,45.54
2019-03-13T00:23:28.066Z,46.06
2019-03-13T00:24:28.061Z,46.15
2019-03-13T00:25:28.054Z,45.54
2019-03-13T00:26:28.031Z,46.06
2019-03-13T00:27:28.032Z,45.21
2019-03-13T00:28:28.036Z,45.54
2019-03-13T00:29:28.008Z,44.51
2019-03-13T00:30:27.994Z,45.34
2019-03-13T00:31:27.989Z,45.23
2019-03-13T00:32:27.975Z,45.52
2019-03-13T00:33:27.962Z,46.06
2019-03-13T00:34:27.954Z,45.75
2019-03-13T00:35:27.954Z,45.34
2019-03-13T00:36:27.931Z,45.75
2019-03-13T00:37:27.925Z,45.75
2019-03-13T00:38:27.905Z,45.95
2019-03-13T00:39:27.895Z,45.54
2019-03-13T00:40:27.888Z,45.43
2019-03-13T00:41:27.892Z,46.06
2019-03-13T00:42:27.870Z,45.95
2019-03-13T00:43:27.854Z,44.82
2019-03-13T00:44:27.854Z,44.92
2019-03-13T00:45:27.838Z,44.82
2019-03-13T00:46:27.820Z,44.82
2019-03-13T00:47:27.810Z,45.54
2019-03-13T00:48:27.810Z,45.85
2019-03-13T00:49:27.795Z,45.64
2019-03-13T00:50:27.778Z,45.95
2019-03-13T00:51:27.765Z,46.15
2019-03-13T00:52:27.767Z,45.64
2019-03-13T00:53:27.754Z,46.26
2019-03-13T00:54:27.740Z,46.26
2019-03-13T00:55:27.720Z,46.36
2019-03-13T00:56:27.711Z,45.85
2019-03-13T00:57:27.699Z,45.85
2019-03-13T00:58:27.687Z,45.95
2019-03-13T00:59:27.677Z,46.47
2019-03-13T01:00:27.670Z,46.67
2019-03-13T01:01:27.663Z,46.57
2019-03-13T01:02:27.645Z,46.18
2019-03-13T01:03:27.637Z,46.57
2019-03-13T01:04:27.623Z,46.26
2019-03-13T01:05:27.622Z,46.15
2019-03-13T01:06:27.606Z,46.69
2019-03-13T01:07:27.601Z,46.88
2019-03-13T01:08:27.581Z,46.26
2019-03-13T01:09:27.581Z,46.36
2019-03-13T01:10:27.565Z,46.15
2019-03-13T01:11:27.609Z,46.77
2019-03-13T01:12:27.541Z,46.47
2019-03-13T01:13:27.530Z,46.15
2019-03-13T01:14:27.520Z,47.70
2019-03-13T01:15:27.507Z,46.67
2019-03-13T01:16:27.504Z,46.88
2019-03-13T01:17:27.497Z,46.59
2019-03-13T01:18:27.483Z,46.15
2019-03-13T01:19:27.467Z,46.57
2019-03-13T01:20:27.452Z,46.36
2019-03-13T01:21:27.446Z,46.67
2019-03-13T01:22:27.436Z,46.98
2019-03-13T01:23:27.419Z,47.08
2019-03-13T01:24:27.413Z,48.52
2019-03-13T01:25:27.397Z,48.44
2019-03-13T01:26:27.403Z,48.85
2019-03-13T01:27:27.383Z,49.06
2019-03-13T01:28:27.375Z,49.37
2019-03-13T01:29:27.361Z,50.19
2019-03-13T01:30:27.352Z,50.50
2019-03-13T01:31:27.341Z,52.14
2019-03-13T01:32:27.329Z,53.48
2019-03-13T01:33:27.321Z,53.69
2019-03-13T01:34:27.316Z,54.30
2019-03-13T01:35:27.327Z,54.41
2019-03-13T01:36:27.281Z,55.95
2019-03-13T01:37:27.272Z,58.45
2019-03-13T01:38:27.262Z,59.89
2019-03-13T01:39:27.254Z,60.61
2019-03-13T01:40:27.247Z,61.33
2019-03-13T01:41:27.234Z,61.43
2019-03-13T01:42:27.216Z,62.15
2019-03-13T01:43:27.213Z,62.59
2019-03-13T01:44:27.198Z,63.21
2019-03-13T01:45:27.189Z,63.62
2019-03-13T01:46:27.177Z,64.86
2019-03-13T01:47:27.161Z,64.89
2019-03-13T01:48:27.159Z,64.99
2019-03-13T01:49:27.138Z,64.99
2019-03-13T01:50:27.136Z,65.81
2019-03-13T01:51:27.120Z,67.97
2019-03-13T01:52:27.114Z,68.59
2019-03-13T01:53:27.135Z,68.42
2019-03-13T01:54:27.086Z,67.90
2019-03-13T01:55:27.077Z,68.42
2019-03-13T01:56:27.068Z,70.68
2019-03-13T01:57:27.062Z,69.17
2019-03-13T01:58:27.057Z,70.28
2019-03-13T01:59:27.039Z,70.31
2019-03-13T02:00:27.035Z,70.82
2019-03-13T02:01:27.016Z,70.10
2019-03-13T02:02:27.009Z,72.06
2019-03-13T02:03:27.022Z,72.06
2019-03-13T02:04:26.981Z,72.06
2019-03-13T02:05:26.970Z,72.99
2019-03-13T02:06:26.963Z,73.43
2019-03-13T02:07:26.956Z,74.22
2019-03-13T02:08:26.951Z,74.43
2019-03-13T02:09:26.933Z,74.88
2019-03-13T02:10:26.916Z,74.88
2019-03-13T02:11:26.915Z,74.95
2019-03-13T02:12:26.901Z,74.57
2019-03-13T02:13:26.898Z,74.84
2019-03-13T02:14:26.876Z,75.77
2019-03-13T02:15:26.862Z,76.53
2019-03-13T02:16:26.854Z,76.63
2019-03-13T02:17:26.848Z,77.97
2019-03-13T02:18:26.836Z,77.97
2019-03-13T02:19:26.841Z,77.97
2019-03-13T02:20:26.813Z,78.28
2019-03-13T02:21:26.805Z,77.25
2019-03-13T02:22:26.789Z,77.97
2019-03-13T02:23:26.780Z,77.56
2019-03-13T02:24:26.772Z,77.76
2019-03-13T02:25:26.767Z,78.38
2019-03-13T02:26:26.750Z,78.38
2019-03-13T02:27:26.737Z,78.94
2019-03-13T02:28:26.727Z,78.80
2019-03-13T02:29:26.717Z,78.28
2019-03-13T02:30:26.713Z,77.76
2019-03-13T02:31:26.697Z,78.18
2019-03-13T02:32:26.680Z,78.38
2019-03-13T02:33:26.770Z,78.38
2019-03-13T02:34:26.683Z,78.49
2019-03-13T02:35:26.655Z,78.59
2019-03-13T02:36:26.769Z,78.49
2019-03-13T02:37:26.636Z,78.69
2019-03-13T02:38:26.616Z,78.69
2019-03-13T02:39:26.623Z,78.08
2019-03-13T02:40:26.617Z,78.28
2019-03-13T02:41:26.599Z,78.28
2019-03-13T02:42:26.705Z,78.08
2019-03-13T02:43:26.569Z,77.76
2019-03-13T02:44:26.579Z,77.97
2019-03-13T02:45:26.555Z,78.08
2019-03-13T02:46:26.538Z,76.73
2019-03-13T02:47:26.536Z,76.42
2019-03-13T02:48:26.532Z,76.84
2019-03-13T02:49:26.508Z,76.94
2019-03-13T02:50:26.497Z,77.73
2019-03-13T02:51:26.499Z,77.87
2019-03-13T02:52:26.477Z,76.84
2019-03-13T02:53:26.468Z,77.15
2019-03-13T02:54:26.461Z,76.73
2019-03-13T02:55:26.438Z,76.53
2019-03-13T02:56:26.450Z,76.08
2019-03-13T02:57:26.426Z,76.29
2019-03-13T02:58:26.451Z,76.84
2019-03-13T02:59:26.408Z,75.67
2019-03-13T03:00:26.384Z,76.84
2019-03-13T03:01:26.383Z,76.49
2019-03-13T03:02:26.385Z,76.80
2019-03-13T03:03:26.370Z,76.53
2019-03-13T03:04:26.352Z,76.49
2019-03-13T03:05:26.341Z,76.39
2019-03-13T03:06:26.323Z,76.18
2019-03-13T03:07:26.317Z,76.53
2019-03-13T03:08:26.310Z,76.94
2019-03-13T03:09:26.311Z,76.63
2019-03-13T03:10:26.291Z,76.49
2019-03-13T03:11:26.266Z,77.35
2019-03-13T03:12:26.255Z,77.35
2019-03-13T03:13:26.252Z,76.63
2019-03-13T03:14:26.239Z,76.53
2019-03-13T03:15:26.232Z,76.18
2019-03-13T03:16:26.227Z,75.87
2019-03-13T03:17:26.242Z,75.87
2019-03-13T03:18:26.219Z,74.74
2019-03-13T03:19:26.188Z,74.43
2019-03-13T03:20:26.186Z,73.57
2019-03-13T03:21:26.177Z,74.12
2019-03-13T03:22:26.162Z,74.08
2019-03-13T03:23:26.147Z,74.02
2019-03-13T03:24:26.183Z,74.08
2019-03-13T03:25:26.146Z,74.53
2019-03-13T03:26:26.116Z,74.63
2019-03-13T03:27:26.111Z,75.05
2019-03-13T03:28:26.087Z,74.63
2019-03-13T03:29:26.082Z,75.05
2019-03-13T03:30:26.086Z,74.98
2019-03-13T03:31:26.060Z,76.01
2019-03-13T03:32:26.050Z,75.18
2019-03-13T03:33:26.038Z,76.21
2019-03-13T03:34:26.075Z,76.73
2019-03-13T03:35:26.017Z,76.53
2019-03-13T03:36:26.008Z,76.21
2019-03-13T03:37:26.003Z,76.32
2019-03-13T03:38:25.994Z,76.98
2019-03-13T03:39:25.993Z,75.91
2019-03-13T03:40:25.970Z,76.77
2019-03-13T03:41:25.957Z,76.56
2019-03-13T03:42:25.943Z,76.67
2019-03-13T03:43:39.203Z,76.56
2019-03-13T03:44:26.922Z,76.67
2019-03-13T03:45:25.923Z,75.74
2019-03-13T03:46:25.901Z,76.39
2019-03-13T03:47:25.889Z,76.70
2019-03-13T03:48:25.894Z,76.90
2019-03-13T03:49:25.870Z,76.60
2019-03-13T03:50:25.870Z,76.18
2019-03-13T03:51:25.852Z,76.29
2019-03-13T03:52:25.838Z,76.29
2019-03-13T03:53:25.825Z,76.60
2019-03-13T03:54:25.817Z,76.29
2019-03-13T03:55:25.817Z,76.70
2019-03-13T03:56:25.799Z,76.60
2019-03-13T03:57:25.785Z,76.50
2019-03-13T03:58:29.192Z,76.22
2019-03-13T03:59:25.766Z,75.15
2019-03-13T04:00:25.768Z,75.46
2019-03-13T04:01:25.749Z,75.60
2019-03-13T04:02:25.741Z,75.26
2019-03-13T04:03:25.729Z,75.15
2019-03-13T04:04:25.739Z,75.46
2019-03-13T04:05:25.709Z,74.84
2019-03-13T04:06:25.693Z,75.49
2019-03-13T04:07:25.681Z,74.63
2019-03-13T04:08:25.674Z,73.71
2019-03-13T04:09:25.658Z,73.19
2019-03-13T04:10:25.646Z,73.29
2019-03-13T04:11:25.637Z,73.60
2019-03-13T04:12:25.629Z,73.19
2019-03-13T04:13:25.619Z,73.12
2019-03-13T04:14:25.645Z,73.50
2019-03-13T04:15:25.595Z,73.43
2019-03-13T04:16:25.589Z,73.29
2019-03-13T04:17:25.577Z,73.81
2019-03-13T04:18:25.561Z,74.05
2019-03-13T04:19:25.566Z,73.85
2019-03-13T04:20:25.540Z,74.05
2019-03-13T04:21:25.670Z,74.36
2019-03-13T04:22:25.529Z,74.33
2019-03-13T04:23:25.514Z,74.26
2019-03-13T04:24:25.525Z,74.12
2019-03-13T04:25:25.493Z,73.71
2019-03-13T04:26:25.477Z,74.57
2019-03-13T04:27:25.467Z,74.26
2019-03-13T04:28:25.455Z,74.15
2019-03-13T04:29:25.452Z,73.85
2019-03-13T04:30:25.445Z,73.12
2019-03-13T04:31:25.424Z,72.91
2019-03-13T04:32:25.404Z,73.33
2019-03-13T04:33:28.035Z,73.43
2019-03-13T04:34:25.385Z,73.43
2019-03-13T04:35:25.379Z,72.81
2019-03-13T04:36:25.382Z,72.50
2019-03-13T04:37:25.378Z,71.06
2019-03-13T04:38:25.342Z,70.64
2019-03-13T04:39:25.339Z,71.57
2019-03-13T04:40:25.331Z,71.57
2019-03-13T04:41:25.315Z,70.23
2019-03-13T04:42:25.309Z,68.78
2019-03-13T04:43:25.291Z,68.68
2019-03-13T04:44:25.277Z,69.09
2019-03-13T04:45:25.275Z,68.58
2019-03-13T04:46:25.269Z,68.99
2019-03-13T04:47:25.320Z,68.68
2019-03-13T04:48:25.240Z,68.88
2019-03-13T04:49:25.228Z,68.58
2019-03-13T04:50:25.217Z,68.78
2019-03-13T04:51:25.209Z,68.88
2019-03-13T04:52:25.201Z,68.88
2019-03-13T04:53:25.199Z,68.68
2019-03-13T04:54:25.174Z,68.88
2019-03-13T04:55:25.161Z,69.09
2019-03-13T04:56:25.149Z,68.06
2019-03-13T04:57:25.157Z,67.65
2019-03-13T04:58:25.140Z,68.06
2019-03-13T04:59:25.134Z,68.06
2019-03-13T05:00:25.130Z,68.40
2019-03-13T05:01:26.338Z,67.44
2019-03-13T05:02:25.085Z,67.54
2019-03-13T05:03:25.081Z,68.58
2019-03-13T05:04:25.134Z,68.16
2019-03-13T05:05:25.063Z,68.58
2019-03-13T05:06:25.051Z,68.92
2019-03-13T05:07:25.035Z,68.92
2019-03-13T05:08:25.028Z,68.71
2019-03-13T05:09:25.014Z,68.71
2019-03-13T05:10:25.007Z,68.71
2019-03-13T05:11:24.995Z,67.71
2019-03-13T05:12:24.981Z,68.74
2019-03-13T05:13:24.971Z,68.64
2019-03-13T05:14:24.971Z,68.43
2019-03-13T05:15:24.948Z,68.54
2019-03-13T05:16:24.947Z,68.74
2019-03-13T05:17:24.929Z,69.06
2019-03-13T05:18:24.924Z,69.06
2019-03-13T05:19:24.906Z,69.57
2019-03-13T05:20:24.897Z,69.67
2019-03-13T05:21:24.894Z,70.01
2019-03-13T05:22:24.881Z,69.71
2019-03-13T05:23:24.870Z,69.92
2019-03-13T05:24:24.859Z,69.81
2019-03-13T05:25:24.841Z,69.60
2019-03-13T05:26:24.833Z,70.32
2019-03-13T05:27:24.821Z,69.92
2019-03-13T05:28:24.811Z,69.60
2019-03-13T05:29:24.797Z,69.60
2019-03-13T05:30:24.788Z,69.40
2019-03-13T05:31:24.783Z,69.47
2019-03-13T05:32:24.769Z,70.22
2019-03-13T05:33:24.765Z,69.60
2019-03-13T05:34:24.749Z,69.40
2019-03-13T05:35:24.733Z,69.60
2019-03-13T05:36:24.726Z,70.22
2019-03-13T05:37:24.717Z,69.81
2019-03-13T05:38:24.711Z,69.60
2019-03-13T05:39:24.700Z,69.71
2019-03-13T05:40:24.683Z,68.98
2019-03-13T05:41:24.670Z,69.29
2019-03-13T05:42:24.660Z,68.98
2019-03-13T05:43:24.666Z,68.88
2019-03-13T05:44:24.649Z,68.88
2019-03-13T05:45:24.626Z,69.19
2019-03-13T05:46:24.627Z,69.19
2019-03-13T05:47:24.605Z,69.60
2019-03-13T05:48:24.597Z,69.43
2019-03-13T05:49:24.581Z,68.98
2019-03-13T05:50:24.579Z,69.43
2019-03-13T05:51:24.564Z,70.15
2019-03-13T05:52:24.551Z,69.84
2019-03-13T05:53:24.545Z,70.05
2019-03-13T05:54:24.532Z,69.32
2019-03-13T05:55:24.604Z,69.95
2019-03-13T05:56:24.507Z,69.74
2019-03-13T05:57:24.501Z,69.64
2019-03-13T05:58:24.483Z,69.12
2019-03-13T05:59:24.496Z,69.32
2019-03-13T06:00:24.472Z,69.12
2019-03-13T06:01:24.455Z,69.50
2019-03-13T06:02:24.440Z,69.40
2019-03-13T06:03:24.436Z,69.19
2019-03-13T06:04:24.423Z,69.19
2019-03-13T06:05:24.438Z,68.98
2019-03-13T06:06:24.408Z,69.29
2019-03-13T06:07:24.394Z,69.29
2019-03-13T06:08:24.379Z,69.26
2019-03-13T06:09:25.632Z,69.06
2019-03-13T06:10:24.362Z,68.98
2019-03-13T06:11:24.347Z,69.09
2019-03-13T06:12:24.341Z,69.19
2019-03-13T06:13:24.322Z,68.85
2019-03-13T06:14:24.321Z,68.23
2019-03-13T06:15:24.301Z,68.43
2019-03-13T06:16:24.297Z,68.74
2019-03-13T06:17:24.279Z,68.74
2019-03-13T06:18:24.275Z,68.12
2019-03-13T06:19:24.264Z,67.61
2019-03-13T06:20:24.249Z,67.30
2019-03-13T06:21:24.235Z,67.50
2019-03-13T06:22:24.247Z,67.19
2019-03-13T06:23:24.219Z,67.71
2019-03-13T06:24:24.220Z,68.33
2019-03-13T06:25:24.193Z,68.02
2019-03-13T06:26:24.195Z,68.12
2019-03-13T06:27:24.192Z,68.02
2019-03-13T06:28:24.174Z,68.02
2019-03-13T06:29:24.159Z,68.02
2019-03-13T06:30:24.138Z,68.12
2019-03-13T06:31:24.141Z,67.91
2019-03-13T06:32:24.117Z,67.91
2019-03-13T06:33:24.106Z,68.46
2019-03-13T06:34:24.093Z,68.95
2019-03-13T06:35:24.227Z,68.33
2019-03-13T06:36:24.093Z,67.82
2019-03-13T06:37:24.065Z,68.33
2019-03-13T06:38:24.057Z,68.74
2019-03-13T06:39:24.057Z,68.95
2019-03-13T06:40:24.037Z,68.85
2019-03-13T06:41:24.037Z,68.74
2019-03-13T06:42:24.008Z,69.16
2019-03-13T06:43:24.007Z,68.95
2019-03-13T06:44:23.993Z,68.74
2019-03-13T06:45:23.997Z,69.06
2019-03-13T06:46:23.979Z,68.74
2019-03-13T06:47:25.189Z,68.54
2019-03-13T06:48:23.953Z,68.51
2019-03-13T06:49:23.939Z,67.78
2019-03-13T06:50:23.930Z,68.19
2019-03-13T06:51:23.925Z,67.54
2019-03-13T06:52:23.903Z,67.47
2019-03-13T06:53:23.893Z,67.68
2019-03-13T06:54:23.883Z,67.47
2019-03-13T06:55:23.869Z,67.99
2019-03-13T06:56:23.873Z,67.58
2019-03-13T06:57:23.851Z,67.78
2019-03-13T06:58:23.851Z,68.27
2019-03-13T06:59:23.826Z,68.06
2019-03-13T07:00:23.815Z,68.06
2019-03-13T07:01:23.809Z,67.34
2019-03-13T07:02:23.799Z,67.24
2019-03-13T07:03:23.795Z,65.55
2019-03-13T07:04:23.793Z,65.62
2019-03-13T07:05:23.767Z,65.18
2019-03-13T07:06:23.755Z,64.25
2019-03-13T07:07:23.746Z,64.25
2019-03-13T07:08:23.761Z,64.04
2019-03-13T07:09:23.723Z,63.67
2019-03-13T07:10:23.710Z,64.18
2019-03-13T07:11:23.753Z,63.97
2019-03-13T07:12:23.693Z,63.84
2019-03-13T07:13:23.689Z,62.92
2019-03-13T07:14:23.673Z,63.50
2019-03-13T07:15:23.665Z,64.12
2019-03-13T07:16:23.648Z,63.60
2019-03-13T07:17:23.633Z,63.74
2019-03-13T07:18:23.621Z,63.53
2019-03-13T07:19:23.615Z,63.53
2019-03-13T07:20:23.655Z,63.53
2019-03-13T07:21:23.776Z,63.74
2019-03-13T07:22:23.596Z,63.67
2019-03-13T07:23:23.571Z,63.84
2019-03-13T07:24:23.557Z,64.04
2019-03-13T07:25:23.564Z,63.84
2019-03-13T07:26:23.551Z,63.40
2019-03-13T07:27:23.531Z,62.24
2019-03-13T07:28:23.510Z,62.34
2019-03-13T07:29:23.503Z,63.00
2019-03-13T07:30:23.505Z,62.35
2019-03-13T07:31:23.487Z,62.18
2019-03-13T07:32:23.481Z,60.61
2019-03-13T07:33:23.463Z,60.37
2019-03-13T07:34:23.447Z,60.91
2019-03-13T07:35:23.446Z,59.39
2019-03-13T07:36:23.427Z,57.10
2019-03-13T07:37:23.426Z,56.98
2019-03-13T07:38:23.412Z,56.82
2019-03-13T07:39:23.404Z,56.36
2019-03-13T07:40:23.389Z,56.79
2019-03-13T07:41:23.384Z,51.42
2019-03-13T07:42:23.365Z,53.33
2019-03-13T07:43:23.355Z,53.03
2019-03-13T07:44:23.351Z,53.74
2019-03-13T07:45:23.330Z,56.82
2019-03-13T07:46:23.318Z,59.06
2019-03-13T07:47:23.307Z,60.74
2019-03-13T07:48:23.303Z,60.97
2019-03-13T07:49:23.299Z,61.41
2019-03-13T07:50:23.281Z,62.00
2019-03-13T07:51:23.265Z,61.56
2019-03-13T07:52:23.261Z,60.19
2019-03-13T07:53:23.262Z,59.17
2019-03-13T07:54:23.237Z,59.59
2019-03-13T07:55:23.223Z,52.75
2019-03-13T07:56:23.215Z,48.11
2019-03-13T07:57:23.204Z,45.16
2019-03-13T07:58:23.201Z,45.75
2019-03-13T07:59:23.181Z,46.10
2019-03-13T08:00:23.173Z,50.07
2019-03-13T08:01:23.161Z,47.09
2019-03-13T08:02:23.170Z,44.40
2019-03-13T08:03:23.143Z,41.11
2019-03-13T08:04:23.134Z,41.52
2019-03-13T08:05:23.123Z,40.85
2019-03-13T08:06:23.111Z,40.70
2019-03-13T08:07:23.129Z,41.33
2019-03-13T08:08:23.086Z,41.05
2019-03-13T08:09:23.071Z,41.82
2019-03-13T08:10:23.066Z,40.83
2019-03-13T08:11:23.066Z,42.45
2019-03-13T08:12:23.039Z,43.29
2019-03-13T08:13:23.039Z,47.04
2019-03-13T08:14:23.023Z,44.59
2019-03-13T08:15:23.009Z,42.57
2019-03-13T08:16:23.004Z,42.05
2019-03-13T08:17:22.993Z,41.46
2019-03-13T08:18:22.980Z,43.23
2019-03-13T08:19:24.241Z,42.00
2019-03-13T08:20:22.972Z,40.40
2019-03-13T08:21:22.953Z,41.42
2019-03-13T08:22:22.936Z,39.23
2019-03-13T08:23:22.925Z,41.15
2019-03-13T08:24:22.913Z,42.59
2019-03-13T08:25:22.903Z,41.68
2019-03-13T08:26:22.894Z,42.41
2019-03-13T08:27:22.880Z,45.12
2019-03-13T08:28:22.877Z,48.30
2019-03-13T08:29:22.862Z,49.40
2019-03-13T08:30:22.859Z,45.67
2019-03-13T08:31:22.839Z,46.39
2019-03-13T08:32:22.827Z,49.16
2019-03-13T08:33:22.815Z,50.90
2019-03-13T08:34:22.821Z,47.47
2019-03-13T08:35:22.798Z,44.14
2019-03-13T08:36:22.789Z,45.40
2019-03-13T08:37:22.776Z,43.32
2019-03-13T08:38:22.772Z,45.88
2019-03-13T08:39:22.761Z,48.30
2019-03-13T08:40:22.751Z,50.01
2019-03-13T08:41:22.735Z,51.15
2019-03-13T08:42:22.719Z,50.01
2019-03-13T08:43:22.716Z,49.73
2019-03-13T08:44:22.703Z,49.42
2019-03-13T08:45:22.696Z,49.40
2019-03-13T08:46:22.683Z,47.39
2019-03-13T08:47:22.673Z,48.15
2019-03-13T08:48:22.687Z,48.25
2019-03-13T08:49:22.649Z,43.81
2019-03-13T08:50:22.636Z,42.55
2019-03-13T08:51:22.635Z,43.71
2019-03-13T08:52:22.617Z,46.12
2019-03-13T08:53:22.601Z,47.76
2019-03-13T08:54:22.599Z,48.79
2019-03-13T08:55:22.591Z,45.81
2019-03-13T08:56:22.581Z,44.59
2019-03-13T08:57:22.569Z,43.96
2019-03-13T08:58:22.546Z,47.39
2019-03-13T08:59:23.705Z,48.81
2019-03-13T09:00:22.533Z,50.06
2019-03-13T09:01:22.529Z,50.37
2019-03-13T09:02:22.526Z,48.16
2019-03-13T09:03:22.501Z,42.59
2019-03-13T09:04:22.482Z,41.07
2019-03-13T09:05:22.479Z,43.23
2019-03-13T09:06:22.479Z,45.55
2019-03-13T09:07:22.453Z,44.43
2019-03-13T09:08:22.452Z,43.30
2019-03-13T09:09:22.438Z,41.35
2019-03-13T09:10:22.846Z,41.25
2019-03-13T09:11:22.412Z,42.10
2019-03-13T09:12:22.397Z,43.98
2019-03-13T09:13:22.392Z,47.76
2019-03-13T09:14:22.388Z,50.37
2019-03-13T09:15:22.368Z,50.18
2019-03-13T09:16:22.359Z,50.29
2019-03-13T09:17:22.356Z,47.02
2019-03-13T09:18:22.347Z,40.93
2019-03-13T09:19:22.335Z,41.55
2019-03-13T09:20:22.330Z,43.10
2019-03-13T09:21:22.309Z,43.12
2019-03-13T09:22:22.295Z,44.53
2019-03-13T09:23:22.288Z,44.45
2019-03-13T09:24:22.279Z,45.51
2019-03-13T09:25:22.273Z,46.26
2019-03-13T09:26:22.253Z,43.26
2019-03-13T09:27:22.246Z,42.69
2019-03-13T09:28:22.235Z,44.34
2019-03-13T09:29:22.322Z,45.18
2019-03-13T09:30:22.209Z,44.18
2019-03-13T09:31:25.335Z,46.96
2019-03-13T09:32:22.194Z,44.08
2019-03-13T09:33:22.178Z,47.58
2019-03-13T09:34:22.165Z,48.23
2019-03-13T09:35:22.165Z,43.38
2019-03-13T09:36:22.146Z,41.38
2019-03-13T09:37:22.143Z,41.44
2019-03-13T09:38:22.130Z,39.87
2019-03-13T09:39:22.111Z,37.73
2019-03-13T09:40:22.102Z,37.35
2019-03-13T09:41:22.090Z,37.08
2019-03-13T09:42:22.099Z,37.79
2019-03-13T09:43:22.096Z,40.34
2019-03-13T09:44:22.058Z,42.65
2019-03-13T09:45:22.055Z,45.02
2019-03-13T09:46:22.039Z,46.49
2019-03-13T09:47:22.033Z,45.63
2019-03-13T09:48:22.026Z,45.65
2019-03-13T09:49:22.009Z,46.31
2019-03-13T09:50:21.996Z,47.66
2019-03-13T09:51:22.007Z,49.01
2019-03-13T09:52:21.995Z,49.04
2019-03-13T09:53:21.972Z,50.90
2019-03-13T09:54:21.958Z,50.16
2019-03-13T09:55:21.942Z,49.73
2019-03-13T09:56:21.929Z,49.52
2019-03-13T09:57:21.927Z,49.04
2019-03-13T09:58:21.912Z,47.60
2019-03-13T09:59:21.908Z,47.06
2019-03-13T10:00:21.898Z,46.16
2019-03-13T10:01:21.883Z,48.15
2019-03-13T10:02:21.872Z,47.61
2019-03-13T10:03:21.863Z,48.00
2019-03-13T10:04:21.847Z,43.57
2019-03-13T10:05:21.851Z,42.92
2019-03-13T10:06:22.548Z,44.45
2019-03-13T10:07:21.815Z,45.49
2019-03-13T10:08:21.806Z,46.47
2019-03-13T10:09:21.795Z,47.94
2019-03-13T10:10:21.784Z,45.16
2019-03-13T10:11:21.777Z,43.73
2019-03-13T10:12:21.767Z,42.63
2019-03-13T10:13:21.751Z,43.51
2019-03-13T10:14:21.738Z,43.02
2019-03-13T10:15:21.727Z,42.65
2019-03-13T10:16:21.722Z,43.37
2019-03-13T10:17:21.711Z,46.25
2019-03-13T10:18:21.696Z,45.86
2019-03-13T10:19:21.687Z,46.26
2019-03-13T10:20:21.677Z,46.25
2019-03-13T10:21:21.665Z,45.81
2019-03-13T10:22:21.651Z,45.79
2019-03-13T10:23:21.640Z,44.81
2019-03-13T10:24:21.631Z,46.29
2019-03-13T10:25:21.626Z,47.86
2019-03-13T10:26:21.696Z,47.56
2019-03-13T10:27:21.595Z,48.22
2019-03-13T10:28:21.615Z,49.55
2019-03-13T10:29:21.577Z,49.37
2019-03-13T10:30:21.563Z,50.10
2019-03-13T10:31:21.553Z,50.34
2019-03-13T10:32:21.552Z,50.44
2019-03-13T10:33:21.543Z,50.44
2019-03-13T10:34:21.584Z,50.23
2019-03-13T10:35:21.515Z,51.13
2019-03-13T10:36:21.510Z,50.01
2019-03-13T10:37:21.491Z,50.10
2019-03-13T10:38:21.481Z,50.01
2019-03-13T10:39:21.473Z,49.69
2019-03-13T10:40:21.459Z,51.01
2019-03-13T10:41:21.447Z,47.56
2019-03-13T10:42:21.437Z,45.67
2019-03-13T10:43:21.430Z,45.47
2019-03-13T10:44:21.414Z,46.08
2019-03-13T10:45:21.483Z,46.39
2019-03-13T10:46:21.392Z,45.94
2019-03-13T10:47:21.379Z,44.92
2019-03-13T10:48:21.369Z,45.96
2019-03-13T10:49:21.359Z,45.82
2019-03-13T10:50:21.357Z,47.58
2019-03-13T10:51:21.363Z,48.19
2019-03-13T10:52:21.328Z,47.89
2019-03-13T10:53:21.323Z,45.53
2019-03-13T10:54:21.307Z,45.76
2019-03-13T10:55:21.301Z,45.84
2019-03-13T10:56:21.334Z,45.35
2019-03-13T10:57:21.276Z,45.20
2019-03-13T10:58:21.268Z,43.53
2019-03-13T10:59:21.247Z,45.69
2019-03-13T11:00:21.251Z,45.43
2019-03-13T11:01:21.234Z,46.47
2019-03-13T11:02:21.225Z,45.90
2019-03-13T11:03:21.206Z,45.88
2019-03-13T11:04:21.210Z,46.04
2019-03-13T11:05:21.189Z,44.57
2019-03-13T11:06:21.193Z,44.49
2019-03-13T11:07:21.171Z,44.20
2019-03-13T11:08:21.161Z,43.63
2019-03-13T11:09:21.149Z,43.23
2019-03-13T11:10:21.140Z,42.69
2019-03-13T11:11:21.130Z,42.96
2019-03-13T11:12:21.116Z,42.92
2019-03-13T11:13:21.106Z,41.82
2019-03-13T11:14:21.098Z,42.12
2019-03-13T11:15:21.081Z,40.96
2019-03-13T11:16:21.068Z,42.29
2019-03-13T11:17:21.061Z,42.85
2019-03-13T11:18:21.050Z,43.71
2019-03-13T11:19:21.045Z,44.06
2019-03-13T11:20:21.028Z,45.49
2019-03-13T11:21:21.017Z,45.67
2019-03-13T11:22:21.005Z,45.88
2019-03-13T11:23:20.988Z,45.88
2019-03-13T11:24:20.990Z,45.98
2019-03-13T11:25:21.038Z,45.90
2019-03-13T11:26:20.960Z,48.17
2019-03-13T11:27:20.967Z,46.33
2019-03-13T11:28:20.939Z,46.19
2019-03-13T11:29:20.924Z,46.51
2019-03-13T11:30:21.034Z,46.53
2019-03-13T11:31:20.904Z,45.41
2019-03-13T11:32:20.893Z,46.33
2019-03-13T11:33:20.897Z,46.76
2019-03-13T11:34:20.884Z,47.40
2019-03-13T11:35:20.866Z,46.68
2019-03-13T11:36:20.859Z,48.01
2019-03-13T11:37:20.851Z,47.38
2019-03-13T11:38:20.833Z,47.48
2019-03-13T11:39:20.817Z,47.89
2019-03-13T11:40:20.813Z,47.78
2019-03-13T11:41:20.809Z,47.78
2019-03-13T11:42:20.787Z,47.71
2019-03-13T11:43:20.776Z,48.52
2019-03-13T11:44:20.761Z,48.11
2019-03-13T11:45:20.753Z,48.34
2019-03-13T11:46:20.741Z,48.96
2019-03-13T11:47:20.733Z,48.98
2019-03-13T11:48:20.723Z,49.49
2019-03-13T11:49:20.707Z,49.80
2019-03-13T11:50:20.698Z,50.01
2019-03-13T11:51:20.691Z,49.18
2019-03-13T11:52:20.679Z,49.49
2019-03-13T11:53:20.671Z,49.29
2019-03-13T11:54:20.661Z,49.39
2019-03-13T11:55:20.647Z,50.21
2019-03-13T11:56:20.631Z,50.82
2019-03-13T11:57:20.635Z,49.90
2019-03-13T11:58:20.690Z,49.29
2019-03-13T11:59:20.601Z,50.23
2019-03-13T12:00:20.663Z,50.64
2019-03-13T12:01:20.576Z,50.02
2019-03-13T12:02:20.571Z,50.72
2019-03-13T12:03:20.581Z,50.44
2019-03-13T12:04:20.551Z,50.42
2019-03-13T12:05:20.546Z,50.74
2019-03-13T12:06:20.521Z,50.02
2019-03-13T12:07:20.514Z,50.13
2019-03-13T12:08:20.502Z,50.13
2019-03-13T12:09:20.495Z,50.44
2019-03-13T12:10:20.479Z,50.87
2019-03-13T12:11:20.476Z,50.56
2019-03-13T12:12:20.454Z,50.56
2019-03-13T12:13:20.449Z,50.26
2019-03-13T12:14:20.436Z,51.28
2019-03-13T12:15:20.427Z,50.97
2019-03-13T12:16:20.437Z,51.18
2019-03-13T12:17:20.401Z,51.39
2019-03-13T12:18:20.392Z,51.69
2019-03-13T12:19:20.386Z,51.79
2019-03-13T12:20:20.377Z,50.67
2019-03-13T12:21:20.374Z,51.48
2019-03-13T12:22:20.354Z,51.39
2019-03-13T12:23:20.342Z,51.18
2019-03-13T12:24:20.326Z,52.10
2019-03-13T12:25:20.315Z,50.56
2019-03-13T12:26:20.306Z,51.41
2019-03-13T12:27:20.302Z,51.39
2019-03-13T12:28:20.281Z,51.69
2019-03-13T12:29:20.291Z,51.79
2019-03-13T12:30:20.259Z,51.48
2019-03-13T12:31:20.259Z,51.59
2019-03-13T12:32:20.243Z,51.79
2019-03-13T12:33:20.235Z,51.18
2019-03-13T12:34:20.219Z,51.90
2019-03-13T12:35:20.214Z,51.18
2019-03-13T12:36:20.215Z,51.90
2019-03-13T12:37:20.210Z,51.59
2019-03-13T12:38:20.179Z,51.07
2019-03-13T12:39:20.172Z,52.10
2019-03-13T12:40:20.175Z,52.10
2019-03-13T12:41:20.151Z,52.10
2019-03-13T12:42:20.135Z,51.51
2019-03-13T12:43:20.133Z,51.69
2019-03-13T12:44:20.127Z,52.20
2019-03-13T12:45:20.102Z,51.59
2019-03-13T12:46:20.104Z,52.00
2019-03-13T12:47:20.096Z,51.48
2019-03-13T12:48:20.073Z,52.20
2019-03-13T12:49:20.067Z,52.33
2019-03-13T12:50:20.054Z,51.90
2019-03-13T12:51:20.042Z,51.20
2019-03-13T12:52:20.034Z,51.51